Time;durP1;ratioP1;P1;durP2;ratioP2;P2;SDS_P1;SDS_P2;PMS_P1;PMS_P2;Temp;Humidity;BMP_temperature;BMP_pressure;BME280_temperature;BME280_humidity;BME280_pressure;Samples;Min_cycle;Max_cycle;Signal;HPM_P1;HPM_P2
2021/06/10 00:01:22;;;;;;;27.75;11.73;;;20.80;99.90;;;;;;3929405;23;19921;-87
2021/06/10 00:07:04;;;;;;;15.25;11.15;;;20.90;99.90;;;;;;3793977;22;20058;-85
2021/06/10 00:09:40;;;;;;;17.08;12.00;;;21.00;99.90;;;;;;3746614;23;20095;-87
2021/06/10 00:12:32;;;;;;;13.85;11.60;;;21.10;99.90;;;;;;3759492;23;20828;-88
2021/06/10 00:15:33;;;;;;;17.17;11.43;;;21.30;99.90;;;;;;3728216;23;20427;-90
2021/06/10 00:18:05;;;;;;;14.65;12.30;;;21.10;99.90;;;;;;3659993;23;20046;-87
2021/06/10 00:23:46;;;;;;;15.98;11.63;;;20.80;99.90;;;;;;1279881;23;21453;-87
2021/06/10 00:29:02;;;;;;;16.55;11.27;;;21.10;99.90;;;;;;3633679;23;20053;-79
2021/06/10 00:37:32;;;;;;;14.25;11.20;;;20.80;99.90;;;;;;3064643;23;20040;-78
2021/06/10 00:40:00;;;;;;;;;;;20.60;99.90;;;;;;3655760;23;21075;31
2021/06/10 01:00:46;;;;;;;19.02;12.98;;;20.40;99.90;;;;;;1206888;23;21460;-90
2021/06/10 01:03:18;;;;;;;29.15;14.95;;;20.40;99.90;;;;;;3017579;23;20042;-80
2021/06/10 01:05:51;;;;;;;18.27;14.30;;;20.30;99.90;;;;;;3706623;23;20049;-89
2021/06/10 01:11:20;;;;;;;17.77;14.27;;;20.20;99.90;;;;;;2598617;22;20088;-88
2021/06/10 01:14:00;;;;;;;22.25;14.32;;;20.10;99.90;;;;;;1740780;23;20044;-90
2021/06/10 01:16:36;;;;;;;21.33;15.35;;;20.10;99.90;;;;;;3701824;23;20070;-90
2021/06/10 01:22:02;;;;;;;22.10;16.40;;;20.00;99.90;;;;;;1209145;23;20191;-85
2021/06/10 01:24:43;;;;;;;26.02;17.45;;;19.90;99.90;;;;;;3954956;23;20059;-82
2021/06/10 01:27:40;;;;;;;21.15;16.80;;;20.00;99.90;;;;;;1207060;23;21536;-90
2021/06/10 01:30:38;;;;;;;23.67;16.38;;;19.80;99.90;;;;;;3621794;23;20034;-80
2021/06/10 01:33:32;;;;;;;25.67;16.67;;;19.80;99.90;;;;;;1282349;23;21420;-91
2021/06/10 02:01:49;;;;;;;22.20;14.85;;;19.40;99.90;;;;;;2702674;23;21238;-90
2021/06/10 02:04:42;;;;;;;19.17;15.05;;;19.30;99.90;;;;;;3624000;23;20935;-91
2021/06/10 02:07:18;;;;;;;19.38;13.90;;;19.40;99.90;;;;;;1272182;23;20178;-84
2021/06/10 02:09:47;;;;;;;19.00;13.80;;;19.40;99.90;;;;;;2003003;23;20030;-81
2021/06/10 02:23:46;;;;;;;21.73;13.55;;;19.10;99.90;;;;;;3554605;40;20038;-83
2021/06/10 02:32:32;;;;;;;17.00;13.43;;;19.00;99.90;;;;;;1209420;23;21453;-91
2021/06/10 02:35:26;;;;;;;15.73;13.52;;;19.10;99.90;;;;;;1207269;23;21344;-91
2021/06/10 02:38:00;;;;;;;16.48;13.00;;;19.00;99.90;;;;;;1235532;23;21418;31
2021/06/10 02:43:19;;;;;;;15.18;12.82;;;18.90;99.90;;;;;;1205893;23;20292;-89
2021/06/10 03:03:54;;;;;;;16.30;11.38;;;18.70;99.90;;;;;;1209400;22;21370;-92
2021/06/10 03:15:15;;;;;;;19.13;11.60;;;18.60;99.90;;;;;;1206159;23;21496;-89
2021/06/10 03:20:59;;;;;;;16.98;12.30;;;18.60;99.90;;;;;;1207052;23;21487;-91
2021/06/10 03:35:13;;;;;;;20.52;13.43;;;18.50;99.90;;;;;;3563956;40;20031;-81
2021/06/10 03:43:23;;;;;;;17.92;13.30;;;18.50;99.90;;;;;;3563885;40;20026;-83
2021/06/10 04:06:06;;;;;;;15.80;10.75;;;18.20;99.90;;;;;;1202395;23;21475;-95
2021/06/10 04:22:40;;;;;;;15.52;10.48;;;18.10;99.90;;;;;;3640645;23;20041;-82
2021/06/10 04:28:31;;;;;;;14.18;9.93;;;18.10;99.90;;;;;;1285711;23;20171;-86
2021/06/10 04:34:13;;;;;;;16.75;10.35;;;18.10;99.90;;;;;;3165293;23;20937;-92
2021/06/10 04:54:46;;;;;;;19.45;13.02;;;18.20;99.90;;;;;;3642812;23;20878;-91
2021/06/10 05:00:34;;;;;;;18.90;12.35;;;18.30;99.90;;;;;;1203842;23;21369;-91
2021/06/10 05:15:09;;;;;;;17.15;10.40;;;18.30;99.90;;;;;;2513289;23;20038;-82
2021/06/10 05:17:49;;;;;;;17.95;11.30;;;18.40;99.90;;;;;;3625581;23;21013;-91
2021/06/10 05:40:36;;;;;;;14.73;11.25;;;18.90;99.90;;;;;;3562422;40;20052;-81
2021/06/10 05:52:05;;;;;;;19.80;12.43;;;18.80;99.90;;;;;;1351658;23;20217;-90
2021/06/10 06:09:07;;;;;;;21.30;10.48;;;19.30;99.90;;;;;;3564681;40;20037;-86
2021/06/10 06:11:36;;;;;;;13.73;10.80;;;19.50;99.90;;;;;;3564679;40;20022;-88
2021/06/10 06:14:07;;;;;;;14.83;11.40;;;19.60;99.90;;;;;;3562160;40;20030;-90
2021/06/10 06:16:37;;;;;;;15.35;11.55;;;19.70;99.90;;;;;;3556336;40;20283;-88
2021/06/10 06:21:56;;;;;;;13.48;10.40;;;19.70;99.90;;;;;;3561047;40;20075;-87
2021/06/10 06:24:25;;;;;;;13.23;10.32;;;20.00;99.90;;;;;;3554013;40;20066;-88
2021/06/10 06:26:53;;;;;;;14.25;10.13;;;20.00;99.90;;;;;;3553549;40;20655;-87
2021/06/10 06:29:21;;;;;;;14.40;10.40;;;20.20;99.90;;;;;;3553520;40;20031;-87
2021/06/10 06:31:48;;;;;;;14.77;8.57;;;20.50;99.90;;;;;;3552672;40;20366;-85
2021/06/10 06:34:15;;;;;;;11.50;8.00;;;20.70;99.90;;;;;;3554593;40;20041;-87
2021/06/10 06:36:43;;;;;;;14.40;8.55;;;20.90;99.90;;;;;;3535214;40;21237;-90
2021/06/10 06:39:10;;;;;;;11.43;8.82;;;21.10;99.90;;;;;;3551764;40;20077;-89
2021/06/10 06:41:39;;;;;;;18.13;10.70;;;21.30;99.90;;;;;;3552694;40;20046;-85
2021/06/10 06:47:06;;;;;;;14.43;9.52;;;21.10;99.90;;;;;;3619290;23;20050;-88
2021/06/10 06:49:36;;;;;;;18.60;9.85;;;21.10;99.90;;;;;;3699366;23;20051;-92
2021/06/10 06:52:05;;;;;;;13.98;9.32;;;21.00;99.90;;;;;;3793104;23;20103;-89
2021/06/10 06:54:58;;;;;;;14.48;10.48;;;20.90;99.90;;;;;;3655812;23;20062;-89
2021/06/10 07:03:39;;;;;;;11.80;9.52;;;21.30;99.90;;;;;;3622352;23;20074;-86
2021/06/10 07:06:08;;;;;;;14.60;9.43;;;21.60;99.90;;;;;;3545478;40;20038;-87
2021/06/10 07:08:42;;;;;;;13.13;9.73;;;21.90;99.90;;;;;;3546806;40;20030;-89
2021/06/10 07:11:12;;;;;;;13.30;9.90;;;22.10;99.90;;;;;;3558661;40;20029;-86
2021/06/10 07:13:41;;;;;;;13.88;9.65;;;22.20;99.90;;;;;;3556319;40;20034;-87
2021/06/10 07:18:55;;;;;;;15.07;10.73;;;22.20;99.90;;;;;;3642021;23;20046;-91
2021/06/10 07:21:43;;;;;;;17.00;10.57;;;22.60;99.90;;;;;;3576717;23;20057;-87
2021/06/10 07:33:12;;;;;;;22.25;10.23;;;23.40;99.90;;;;;;3569454;40;20050;-85
2021/06/10 07:35:40;;;;;;;13.88;9.07;;;23.60;99.90;;;;;;3569392;40;20045;-86
2021/06/10 07:38:13;;;;;;;13.32;10.38;;;23.80;99.90;;;;;;3549121;40;20103;-86
2021/06/10 07:40:48;;;;;;;13.60;9.85;;;23.90;99.90;;;;;;3552808;40;20276;-86
2021/06/10 07:43:16;;;;;;;13.52;9.77;;;23.60;99.90;;;;;;3555422;40;20082;-87
2021/06/10 07:45:44;;;;;;;17.48;10.40;;;23.20;99.90;;;;;;3564942;40;20074;-88
2021/06/10 07:48:11;;;;;;;14.40;10.52;;;23.00;99.90;;;;;;3567583;40;20042;-86
2021/06/10 07:50:39;;;;;;;13.38;10.10;;;22.70;99.90;;;;;;3559177;40;20082;-85
2021/06/10 07:53:18;;;;;;;16.52;9.30;;;22.80;99.90;;;;;;3550000;40;20393;-89
2021/06/10 07:55:46;;;;;;;;;;;22.70;99.90;;;;;;3571085;40;20058;-86
2021/06/10 07:58:15;;;;;;;14.38;10.10;;;22.80;99.90;;;;;;3558925;40;19953;-86
2021/06/10 08:00:42;;;;;;;11.48;9.07;;;22.70;99.90;;;;;;3559280;40;20026;-90
2021/06/10 08:03:12;;;;;;;12.05;8.90;;;22.60;99.90;;;;;;3558735;40;20086;-88
2021/06/10 08:05:39;;;;;;;11.07;7.40;;;22.80;99.90;;;;;;3566070;40;20074;-85
2021/06/10 08:08:08;;;;;;;10.35;7.20;;;23.10;99.90;;;;;;3562242;40;20086;-83
2021/06/10 08:10:37;;;;;;;12.50;7.83;;;23.40;99.90;;;;;;3555094;40;20070;-84
2021/06/10 08:13:10;;;;;;;10.38;7.45;;;23.60;99.90;;;;;;3555298;40;20065;-83
2021/06/10 08:15:38;;;;;;;8.57;6.78;;;23.40;99.90;;;;;;3559652;40;20061;-84
2021/06/10 08:18:06;;;;;;;13.67;7.40;;;23.50;99.90;;;;;;3557397;40;20054;-86
2021/06/10 08:20:35;;;;;;;8.88;6.45;;;23.80;99.90;;;;;;3556968;40;20075;-84
2021/06/10 08:23:04;;;;;;;10.00;7.50;;;23.90;98.60;;;;;;3564925;40;20070;-86
2021/06/10 08:25:35;;;;;;;9.43;6.65;;;23.70;98.50;;;;;;3550663;40;20185;-83
2021/06/10 08:28:05;;;;;;;12.60;6.70;;;23.80;98.60;;;;;;3551232;40;20513;-84
2021/06/10 08:30:42;;;;;;;7.28;5.35;;;23.90;97.50;;;;;;3531641;40;20071;-83
2021/06/10 08:33:25;;;;;;;7.57;4.85;;;24.10;96.80;;;;;;3544833;40;20094;-84
2021/06/10 08:35:52;;;;;;;9.47;5.53;;;24.50;95.70;;;;;;3541915;40;20067;-85
2021/06/10 08:38:20;;;;;;;13.38;6.00;;;24.80;95.50;;;;;;3544199;40;20070;-83
2021/06/10 08:40:48;;;;;;;8.75;5.75;;;24.90;95.40;;;;;;3553800;40;20055;-83
2021/06/10 08:43:19;;;;;;;13.13;6.00;;;25.10;95.50;;;;;;3549661;40;20071;-83
2021/06/10 08:45:50;;;;;;;13.07;7.57;;;25.20;95.10;;;;;;3538803;40;20069;-83
2021/06/10 08:48:17;;;;;;;13.30;7.43;;;25.20;95.90;;;;;;3546489;40;20071;-86
2021/06/10 08:50:45;;;;;;;8.88;6.32;;;24.80;96.30;;;;;;3541713;40;20111;-83
2021/06/10 08:53:12;;;;;;;8.50;6.63;;;24.90;96.40;;;;;;3536518;40;20067;-83
2021/06/10 08:55:44;;;;;;;8.98;5.88;;;25.00;96.30;;;;;;3542951;40;20313;-83
2021/06/10 08:58:11;;;;;;;9.50;5.65;;;25.00;92.10;;;;;;3539126;40;20470;-84
2021/06/10 09:00:41;;;;;;;7.30;5.07;;;25.00;92.00;;;;;;3536172;40;20070;-82
2021/06/10 09:03:10;;;;;;;8.77;6.15;;;25.10;91.60;;;;;;3543336;40;20098;-87
2021/06/10 09:05:42;;;;;;;11.18;5.30;;;25.20;91.00;;;;;;3543956;40;20086;-82
2021/06/10 09:08:10;;;;;;;7.80;5.55;;;25.40;90.70;;;;;;3564868;40;20062;-83
2021/06/10 09:10:38;;;;;;;11.55;6.15;;;25.50;90.10;;;;;;3562295;40;20425;-82
2021/06/10 09:13:09;;;;;;;7.22;5.35;;;25.70;89.00;;;;;;3563782;40;20137;-82
2021/06/10 09:15:38;;;;;;;8.23;5.32;;;25.80;86.90;;;;;;3564273;40;20073;-84
2021/06/10 09:18:11;;;;;;;8.00;5.68;;;25.80;86.00;;;;;;3554863;40;20093;-82
2021/06/10 09:20:45;;;;;;;16.83;6.72;;;26.00;86.50;;;;;;3553577;40;20082;-81
2021/06/10 09:23:23;;;;;;;10.20;5.55;;;26.00;86.80;;;;;;3552062;40;20089;-82
2021/06/10 09:26:01;;;;;;;11.88;7.10;;;26.20;87.50;;;;;;3569649;40;20324;-83
2021/06/10 09:28:32;;;;;;;7.60;6.15;;;26.30;85.40;;;;;;3567968;40;20065;-83
2021/06/10 09:31:02;;;;;;;7.38;6.13;;;26.10;83.80;;;;;;3548034;40;20089;-82
2021/06/10 09:33:40;;;;;;;8.88;5.95;;;25.80;85.70;;;;;;3557171;40;20307;-82
2021/06/10 09:36:15;;;;;;;7.93;5.13;;;25.90;86.10;;;;;;3569925;40;20097;-82
2021/06/10 09:39:03;;;;;;;8.40;4.72;;;26.10;82.30;;;;;;3568168;40;20073;-82
2021/06/10 09:41:32;;;;;;;;;;;26.30;79.80;;;;;;3540202;40;20093;-82
2021/06/10 09:44:00;;;;;;;;;;;26.30;78.20;;;;;;3558904;40;20232;-84
2021/06/10 09:46:27;;;;;;;7.30;4.65;;;26.30;75.30;;;;;;3555185;40;19969;-83
2021/06/10 09:49:07;;;;;;;8.73;4.70;;;26.30;75.10;;;;;;3551983;40;20158;-83
2021/06/10 09:51:36;;;;;;;7.00;4.53;;;26.40;75.50;;;;;;3558960;40;20112;-83
2021/06/10 09:54:03;;;;;;;7.97;4.57;;;26.50;74.00;;;;;;3560979;40;20070;-84
2021/06/10 09:56:31;;;;;;;9.63;5.00;;;26.50;70.90;;;;;;3553170;40;20097;-84
2021/06/10 10:28:45;;;;;;;7.97;4.45;;;27.00;69.10;;;;;;3622028;39;20377;-84
2021/06/10 10:31:13;;;;;;;5.63;4.30;;;32.80;54.60;;;;;;3607857;39;20107;-82
2021/06/10 10:33:47;;;;;;;8.80;4.57;;;33.10;53.20;;;;;;3602747;39;20075;-84
2021/06/10 10:36:24;;;;;;;7.00;4.03;;;33.40;51.90;;;;;;3606323;39;20060;-82
2021/06/10 10:38:59;;;;;;;5.80;3.83;;;33.80;50.70;;;;;;3601602;39;20130;-82
2021/06/10 10:41:29;;;;;;;;;;;34.50;49.20;;;;;;3610483;39;20067;-82
2021/06/10 10:44:11;;;;;;;6.35;3.22;;;34.80;47.20;;;;;;3609961;39;20218;-81
2021/06/10 10:46:38;;;;;;;4.30;3.20;;;34.20;45.80;;;;;;3610869;39;20087;-83
2021/06/10 10:49:22;;;;;;;4.93;3.42;;;33.20;46.70;;;;;;3603892;39;20059;-81
2021/06/10 10:51:51;;;;;;;4.55;3.67;;;31.90;47.60;;;;;;3603334;39;20099;-82
2021/06/10 10:54:32;;;;;;;5.60;3.38;;;31.40;49.20;;;;;;3609493;39;20071;-83
2021/06/10 10:57:00;;;;;;;5.10;3.65;;;32.00;48.90;;;;;;3586414;39;20296;-81
2021/06/10 10:59:41;;;;;;;6.25;3.80;;;33.20;48.10;;;;;;3598432;39;20064;-82
2021/06/10 11:02:29;;;;;;;8.85;3.78;;;34.60;46.30;;;;;;3589352;40;20069;-81
2021/06/10 11:04:57;;;;;;;;;;;36.00;44.00;;;;;;3602902;39;20068;-82
2021/06/10 11:07:54;;;;;;;5.90;3.45;;;36.20;43.50;;;;;;3597743;39;19968;-81
2021/06/10 11:11:03;;;;;;;4.60;3.00;;;36.50;43.00;;;;;;3588578;40;20064;-83
2021/06/10 11:13:47;;;;;;;4.80;3.00;;;37.00;41.20;;;;;;3589451;40;20089;-82
2021/06/10 11:16:15;;;;;;;4.38;2.83;;;38.20;40.20;;;;;;3603799;39;20091;-81
2021/06/10 11:18:53;;;;;;;5.75;3.55;;;38.60;39.20;;;;;;3597599;40;20077;-84
2021/06/10 11:21:52;;;;;;;7.15;4.60;;;37.50;40.00;;;;;;3600733;39;20056;-81
2021/06/10 11:24:29;;;;;;;7.93;4.35;;;35.20;45.20;;;;;;3595415;40;20353;-83
2021/06/10 11:27:02;;;;;;;10.50;3.85;;;32.10;49.40;;;;;;3589933;40;20312;-81
2021/06/10 11:29:31;;;;;;;10.18;3.47;;;30.00;51.60;;;;;;3587464;40;20089;-81
2021/06/10 11:32:29;;;;;;;9.05;3.33;;;29.20;53.30;;;;;;3590058;40;20509;-82
2021/06/10 11:34:58;;;;;;;5.40;3.70;;;29.50;52.70;;;;;;3573193;40;20060;-83
2021/06/10 11:37:28;;;;;;;5.17;3.63;;;29.80;51.80;;;;;;3586192;40;20076;-81
2021/06/10 11:39:57;;;;;;;6.07;3.60;;;30.20;51.40;;;;;;3591524;40;20064;-81
2021/06/10 11:42:43;;;;;;;5.40;3.35;;;31.10;50.20;;;;;;3592541;40;20268;-82
2021/06/10 11:45:12;;;;;;;8.52;3.75;;;32.30;48.10;;;;;;3588455;40;20073;-80
2021/06/10 11:47:43;;;;;;;4.38;3.22;;;33.80;46.80;;;;;;3601620;40;20063;-81
2021/06/10 11:50:31;;;;;;;5.03;3.25;;;35.00;44.60;;;;;;3583171;40;20396;-82
2021/06/10 11:53:05;;;;;;;9.20;3.58;;;32.00;46.50;;;;;;3708481;23;20317;-85
2021/06/10 11:55:36;;;;;;;6.40;3.63;;;31.50;48.10;;;;;;3575426;40;20089;-84
2021/06/10 11:58:08;;;;;;;5.90;3.75;;;32.10;48.10;;;;;;3584521;40;20164;-83
2021/06/10 12:00:39;;;;;;;7.47;4.85;;;33.50;45.70;;;;;;3573000;40;20569;-83
2021/06/10 12:03:12;;;;;;;7.45;4.60;;;33.40;46.20;;;;;;3586460;40;20069;-84
2021/06/10 12:05:54;;;;;;;6.13;3.65;;;32.50;46.90;;;;;;3584197;40;20093;-84
2021/06/10 12:08:24;;;;;;;8.82;3.85;;;31.50;47.60;;;;;;3582660;40;20073;-85
2021/06/10 12:10:56;;;;;;;5.53;4.03;;;30.80;48.20;;;;;;3580086;40;20077;-85
2021/06/10 12:13:33;;;;;;;5.78;3.40;;;31.40;48.20;;;;;;3563927;40;20313;-83
2021/06/10 12:16:08;;;;;;;5.50;3.03;;;32.40;46.10;;;;;;3580410;40;20068;-82
2021/06/10 12:18:47;;;;;;;4.95;3.55;;;33.80;44.00;;;;;;3577863;40;20408;-84
2021/06/10 12:21:17;;;;;;;5.93;3.50;;;32.70;45.30;;;;;;3581360;40;20081;-85
2021/06/10 12:26:31;;;;;;;9.18;4.88;;;33.90;44.00;;;;;;3588954;40;20314;-84
2021/06/10 12:29:01;;;;;;;7.05;5.22;;;33.80;45.80;;;;;;3568221;40;20363;-84
2021/06/10 12:31:32;;;;;;;8.65;4.43;;;33.10;46.90;;;;;;3567674;40;20073;-87
2021/06/10 12:34:04;;;;;;;9.90;4.72;;;32.20;48.10;;;;;;3565137;40;20061;-85
2021/06/10 12:36:34;;;;;;;5.70;3.90;;;32.50;47.60;;;;;;3567957;40;20081;-87
2021/06/10 12:39:05;;;;;;;6.38;3.67;;;33.70;46.10;;;;;;3564712;40;20440;-86
2021/06/10 12:41:37;;;;;;;4.65;3.40;;;35.80;44.60;;;;;;3547612;40;20159;-85
2021/06/10 12:44:13;;;;;;;6.82;3.90;;;37.70;41.90;;;;;;3563454;40;20100;-88
2021/06/10 12:46:54;;;;;;;5.05;3.70;;;38.20;39.80;;;;;;3562294;40;20114;-86
2021/06/10 12:49:40;;;;;;;7.53;4.15;;;38.00;39.90;;;;;;3558148;40;20437;-87
2021/06/10 12:52:20;;;;;;;6.65;4.38;;;36.70;41.10;;;;;;3559941;40;20065;-87
2021/06/10 12:54:50;;;;;;;7.47;3.75;;;35.90;42.00;;;;;;3553580;40;20242;-85
2021/06/10 12:57:22;;;;;;;5.60;3.80;;;35.20;42.70;;;;;;3544295;40;20081;-87
2021/06/10 12:59:58;;;;;;;5.05;3.72;;;35.30;43.20;;;;;;3541905;40;20094;-85
2021/06/10 13:02:27;;;;;;;5.15;3.78;;;36.00;43.20;;;;;;3559517;40;20110;-85
2021/06/10 13:04:59;;;;;;;5.38;3.53;;;38.00;41.40;;;;;;3568107;40;20393;-87
2021/06/10 13:07:36;;;;;;;4.55;3.45;;;38.90;39.20;;;;;;3576730;40;20065;-86
2021/06/10 13:10:05;;;;;;;12.70;3.97;;;38.10;39.50;;;;;;3578752;40;20064;-84
2021/06/10 13:12:34;;;;;;;5.32;3.30;;;38.20;40.10;;;;;;3576700;40;20092;-84
2021/06/10 13:15:11;;;;;;;5.32;3.25;;;39.30;39.30;;;;;;3579376;40;20076;-83
2021/06/10 13:17:54;;;;;;;10.15;3.78;;;40.30;38.80;;;;;;3581616;40;20048;-88
2021/06/10 13:20:49;;;;;;;11.63;4.13;;;39.80;38.10;;;;;;3572609;40;20104;-83
2021/06/10 13:23:19;;;;;;;7.35;4.55;;;38.10;39.70;;;;;;3572883;40;20054;-86
2021/06/10 13:26:12;;;;;;;4.90;3.80;;;37.40;40.70;;;;;;3574015;40;20067;-85
2021/06/10 13:28:47;;;;;;;5.55;3.17;;;37.70;41.00;;;;;;3573083;40;20055;-85
2021/06/10 13:31:22;;;;;;;7.10;4.80;;;38.80;39.70;;;;;;3573054;40;20045;-86
2021/06/10 13:33:54;;;;;;;5.60;3.65;;;40.10;38.70;;;;;;3573557;40;20515;-86
2021/06/10 13:36:28;;;;;;;6.22;3.70;;;41.00;37.60;;;;;;3578378;40;20073;-84
2021/06/10 13:38:58;;;;;;;6.95;4.18;;;41.10;37.10;;;;;;3583727;40;20066;-85
2021/06/10 13:41:29;;;;;;;10.18;4.25;;;40.10;38.00;;;;;;3579127;40;20080;-86
2021/06/10 13:43:59;;;;;;;13.43;4.38;;;38.60;39.80;;;;;;3578663;40;20057;-85
2021/06/10 13:46:27;;;;;;;6.03;4.50;;;38.30;40.60;;;;;;3570990;40;20085;-86
2021/06/10 13:48:56;;;;;;;8.95;5.00;;;37.50;40.70;;;;;;3578995;40;20128;-85
2021/06/10 13:51:25;;;;;;;7.45;5.28;;;35.90;42.70;;;;;;3572471;40;20081;-85
2021/06/10 13:53:57;;;;;;;8.68;4.80;;;32.70;47.50;;;;;;3576372;40;20093;-85
2021/06/10 13:56:28;;;;;;;6.03;4.00;;;32.90;48.10;;;;;;3580020;40;20101;-83
2021/06/10 13:58:57;;;;;;;7.55;3.95;;;34.40;46.00;;;;;;3579944;40;20419;-84
2021/06/10 14:01:25;;;;;;;10.93;4.38;;;35.10;44.10;;;;;;3580983;40;20108;-84
2021/06/10 14:03:53;;;;;;;;;;;34.80;44.10;;;;;;3564882;40;20089;-85
2021/06/10 14:06:20;;;;;;;6.05;4.30;;;35.30;44.30;;;;;;3589196;40;19968;-86
2021/06/10 14:08:49;;;;;;;14.68;4.20;;;36.60;42.80;;;;;;3580661;40;20045;-85
2021/06/10 14:11:17;;;;;;;7.15;5.07;;;37.50;41.70;;;;;;3576603;40;20054;-85
2021/06/10 14:13:45;;;;;;;7.88;4.30;;;38.20;40.70;;;;;;3569915;40;20070;-85
2021/06/10 14:16:20;;;;;;;7.32;4.00;;;38.00;40.50;;;;;;3579827;40;20422;-85
2021/06/10 14:18:50;;;;;;;8.70;4.60;;;38.60;39.30;;;;;;3579443;40;20313;-85
2021/06/10 14:21:23;;;;;;;6.78;3.08;;;38.20;40.10;;;;;;3579176;40;20074;-85
2021/06/10 14:23:52;;;;;;;5.10;3.33;;;38.70;39.80;;;;;;3570130;40;20089;-86
2021/06/10 14:26:19;;;;;;;8.55;3.67;;;38.80;38.40;;;;;;3574602;40;20395;-85
2021/06/10 14:28:47;;;;;;;4.90;3.40;;;38.40;38.20;;;;;;3579361;40;20068;-86
2021/06/10 14:34:10;;;;;;;7.30;3.20;;;40.00;38.00;;;;;;3568399;40;20396;-85
2021/06/10 14:36:45;;;;;;;6.72;3.30;;;40.60;37.10;;;;;;3576234;40;20119;-86
2021/06/10 14:39:15;;;;;;;6.18;3.15;;;40.30;36.80;;;;;;3570235;40;20084;-88
2021/06/10 14:41:42;;;;;;;8.77;3.67;;;39.20;37.50;;;;;;3582065;40;20082;-86
2021/06/10 14:44:10;;;;;;;7.38;3.88;;;37.70;38.50;;;;;;3583952;40;20089;-85
2021/06/10 14:46:50;;;;;;;5.40;3.67;;;36.50;40.10;;;;;;3586623;40;20045;-87
2021/06/10 14:49:18;;;;;;;7.43;3.60;;;35.50;41.50;;;;;;3573419;40;20089;-83
2021/06/10 14:51:45;;;;;;;15.95;4.07;;;34.50;42.60;;;;;;3578711;40;20066;-84
2021/06/10 14:54:21;;;;;;;6.72;3.58;;;33.60;43.80;;;;;;3570958;40;20154;-84
2021/06/10 14:56:48;;;;;;;6.78;3.78;;;32.70;45.90;;;;;;3579769;40;20093;-84
2021/06/10 14:59:16;;;;;;;6.65;3.80;;;31.80;48.30;;;;;;3564805;40;20298;-85
2021/06/10 15:01:43;;;;;;;9.80;3.85;;;31.10;49.40;;;;;;3573467;40;20085;-85
2021/06/10 15:04:10;;;;;;;7.87;3.80;;;30.50;50.70;;;;;;3565301;40;20282;-84
2021/06/10 15:06:45;;;;;;;10.38;3.78;;;29.70;52.60;;;;;;3574850;40;20066;-85
2021/06/10 15:09:16;;;;;;;8.13;2.50;;;28.90;53.20;;;;;;3575345;40;20093;-84
2021/06/10 15:11:45;;;;;;;6.85;2.75;;;28.30;52.80;;;;;;3566391;40;20089;-86
2021/06/10 15:14:13;;;;;;;6.53;2.28;;;27.60;53.00;;;;;;3575775;40;20396;-86
2021/06/10 15:16:40;;;;;;;11.00;2.30;;;27.10;52.40;;;;;;3579314;40;20029;-86
2021/06/10 15:19:09;;;;;;;6.93;2.08;;;26.70;53.20;;;;;;3579294;40;20066;-85
2021/06/10 15:21:36;;;;;;;6.95;2.30;;;26.50;53.70;;;;;;3577004;40;20041;-83
2021/06/10 15:24:05;;;;;;;4.57;2.07;;;26.30;53.50;;;;;;3566302;40;20066;-85
2021/06/10 15:26:33;;;;;;;6.22;2.35;;;26.10;53.70;;;;;;3566303;40;20310;-85
2021/06/10 15:29:03;;;;;;;5.67;2.60;;;26.00;55.10;;;;;;3575231;40;20062;-86
2021/06/10 15:31:31;;;;;;;4.85;2.40;;;25.80;56.20;;;;;;3576243;40;20070;-86
2021/06/10 15:33:58;;;;;;;6.45;2.60;;;25.30;56.80;;;;;;3575473;40;20453;-87
2021/06/10 15:36:28;;;;;;;5.83;2.43;;;24.50;59.10;;;;;;3575652;40;20065;-88
2021/06/10 15:38:55;;;;;;;7.38;2.70;;;24.00;61.70;;;;;;3576070;40;20085;-88
2021/06/10 15:41:22;;;;;;;6.57;2.60;;;23.60;63.50;;;;;;3567417;40;20074;-85
2021/06/10 15:43:50;;;;;;;5.97;2.25;;;23.50;63.20;;;;;;3575711;40;20077;-85
2021/06/10 15:46:19;;;;;;;11.55;2.40;;;23.60;62.50;;;;;;3567428;40;20069;-87
2021/06/10 15:48:47;;;;;;;4.65;2.70;;;23.60;62.40;;;;;;3584217;40;20082;-84
2021/06/10 15:51:17;;;;;;;4.15;2.47;;;23.50;63.10;;;;;;3567395;40;20093;-85
2021/06/10 15:53:45;;;;;;;4.72;2.15;;;23.50;63.40;;;;;;3567374;40;20085;-84
2021/06/10 15:56:13;;;;;;;8.10;3.17;;;23.50;63.80;;;;;;3555428;40;20066;-85
2021/06/10 15:58:41;;;;;;;10.90;3.03;;;23.60;63.80;;;;;;3548232;40;20078;-86
2021/06/10 16:01:09;;;;;;;5.15;2.90;;;23.80;63.30;;;;;;3547404;40;20153;-86
2021/06/10 16:03:49;;;;;;;7.25;2.92;;;23.90;63.90;;;;;;3557446;40;20079;-88
2021/06/10 16:08:58;;;;;;;12.35;3.75;;;22.90;67.10;;;;;;3600188;40;20025;-89
2021/06/10 16:11:25;;;;;;;7.10;3.53;;;22.60;68.10;;;;;;3583530;40;20060;-88
2021/06/10 16:13:53;;;;;;;6.22;3.63;;;22.50;69.30;;;;;;3600112;40;20073;-86
2021/06/10 16:16:50;;;;;;;7.47;3.40;;;22.40;69.90;;;;;;3591113;40;20304;-85
2021/06/10 16:19:19;;;;;;;8.30;4.03;;;23.20;69.60;;;;;;3582386;40;20068;-86
2021/06/10 16:21:46;;;;;;;7.47;3.33;;;24.10;67.70;;;;;;3581693;40;20029;-85
2021/06/10 16:24:14;;;;;;;6.82;3.80;;;25.20;64.90;;;;;;3581525;40;20043;-86
2021/06/10 16:26:41;;;;;;;6.72;3.45;;;26.20;63.00;;;;;;3591323;40;20052;-86
2021/06/10 16:29:09;;;;;;;12.18;3.47;;;27.50;59.90;;;;;;3582627;40;20043;-84
2021/06/10 16:32:02;;;;;;;11.98;4.13;;;28.60;57.20;;;;;;3585685;40;20072;-86
2021/06/10 16:34:32;;;;;;;5.60;3.53;;;29.10;55.60;;;;;;3579423;40;20072;-84
2021/06/10 16:36:59;;;;;;;6.93;3.78;;;28.60;55.60;;;;;;3584782;40;20151;-83
2021/06/10 16:39:27;;;;;;;9.95;3.65;;;27.30;58.70;;;;;;3585539;40;20065;-86
2021/06/10 16:41:56;;;;;;;9.50;3.75;;;26.30;62.00;;;;;;3586527;40;20072;-85
2021/06/10 16:44:24;;;;;;;8.45;3.97;;;25.60;65.00;;;;;;3585318;40;20345;-84
2021/06/10 16:46:54;;;;;;;7.63;3.33;;;24.80;66.10;;;;;;3575708;40;20080;-85
2021/06/10 16:49:21;;;;;;;7.90;3.30;;;24.20;68.10;;;;;;3585846;40;20096;-85
2021/06/10 16:51:50;;;;;;;5.93;3.50;;;23.40;70.60;;;;;;3591918;40;20081;-88
2021/06/10 16:54:20;;;;;;;6.70;3.60;;;23.10;71.80;;;;;;3581246;40;20047;-84
2021/06/10 16:56:50;;;;;;;5.90;3.47;;;23.00;72.20;;;;;;3561973;40;20045;-87
2021/06/10 16:59:19;;;;;;;7.85;3.20;;;22.70;73.70;;;;;;3618155;23;20032;-87
2021/06/10 17:02:23;;;;;;;;;;;22.60;73.10;;;;;;3612499;23;20028;-89
2021/06/10 17:04:51;;;;;;;4.28;2.80;;;22.70;72.60;;;;;;3561895;40;19987;-85
2021/06/10 17:07:20;;;;;;;7.47;2.83;;;23.00;71.00;;;;;;3579002;40;20077;-82
2021/06/10 17:09:48;;;;;;;;;;;23.10;70.40;;;;;;3576738;40;20092;-83
2021/06/10 17:12:18;;;;;;;6.20;3.30;;;23.20;69.80;;;;;;3567700;40;19977;-81
2021/06/10 17:14:49;;;;;;;5.93;2.83;;;23.10;70.20;;;;;;3568930;40;20408;-82
2021/06/10 17:17:17;;;;;;;5.95;3.28;;;23.20;70.70;;;;;;3565819;40;20304;-84
2021/06/10 17:19:44;;;;;;;5.45;3.30;;;23.30;71.00;;;;;;3571433;40;20089;-82
2021/06/10 17:22:13;;;;;;;6.50;3.50;;;23.60;70.30;;;;;;3567482;40;20085;-83
2021/06/10 17:24:41;;;;;;;4.93;3.50;;;23.70;70.70;;;;;;3559220;40;20080;-83
2021/06/10 17:27:10;;;;;;;5.88;3.40;;;23.40;71.50;;;;;;3561059;40;20090;-84
2021/06/10 17:29:39;;;;;;;6.60;3.53;;;23.10;72.60;;;;;;3579541;40;20081;-83
2021/06/10 17:32:06;;;;;;;7.75;3.90;;;22.90;73.60;;;;;;3570725;40;20076;-84
2021/06/10 17:34:34;;;;;;;6.40;3.90;;;22.80;75.10;;;;;;3575281;40;20081;-83
2021/06/10 17:37:01;;;;;;;8.65;3.83;;;22.50;76.70;;;;;;3570505;40;20068;-87
2021/06/10 17:39:28;;;;;;;6.07;4.00;;;22.20;79.60;;;;;;3574274;40;20077;-85
2021/06/10 17:41:57;;;;;;;4.93;3.85;;;22.10;81.40;;;;;;3569923;40;20298;-84
2021/06/10 17:44:25;;;;;;;8.45;4.10;;;22.00;83.00;;;;;;3566507;40;20088;-85
2021/06/10 17:46:57;;;;;;;11.95;4.78;;;21.90;85.80;;;;;;3565335;40;20112;-85
2021/06/10 17:49:24;;;;;;;7.38;4.20;;;21.80;88.80;;;;;;3580985;40;20073;-84
2021/06/10 17:51:51;;;;;;;7.60;4.68;;;21.90;90.50;;;;;;3565957;40;20303;-82
2021/06/10 17:54:19;;;;;;;5.45;4.00;;;21.90;90.20;;;;;;3567941;40;20069;-83
2021/06/10 17:56:46;;;;;;;7.75;4.40;;;21.90;91.30;;;;;;3560990;40;20084;-85
2021/06/10 17:59:19;;;;;;;8.50;4.45;;;22.20;91.80;;;;;;3567935;40;20069;-86
2021/06/10 18:01:54;;;;;;;7.90;5.18;;;22.10;92.30;;;;;;3555096;40;20073;-87
2021/06/10 18:04:22;;;;;;;9.93;4.95;;;21.90;95.30;;;;;;3560130;40;20627;-87
2021/06/10 18:06:50;;;;;;;8.35;5.28;;;21.60;97.50;;;;;;3568141;40;20106;-86
2021/06/10 18:09:18;;;;;;;8.25;5.05;;;21.60;99.10;;;;;;3568611;40;20085;-86
2021/06/10 18:11:45;;;;;;;10.13;5.28;;;21.60;99.90;;;;;;3583024;40;20092;-85
2021/06/10 18:14:12;;;;;;;7.03;4.82;;;21.50;99.90;;;;;;3558525;40;20049;-86
2021/06/10 18:16:41;;;;;;;8.27;5.45;;;21.50;99.90;;;;;;3574150;40;20093;-87
2021/06/10 18:19:08;;;;;;;7.63;5.20;;;21.50;99.90;;;;;;3571794;40;20061;-84
2021/06/10 18:21:46;;;;;;;10.27;5.07;;;21.50;99.90;;;;;;3588799;22;20115;-91